sensor_id;sensor_type;location;lat;lon;timestamp;P1;durP1;ratioP1;P2;durP2;ratioP2
39740;SDS011;25426;53.478;10.190;2022-07-29T00:02:18;3.38;;;2.30;;
39740;SDS011;25426;53.478;10.190;2022-07-29T00:04:48;5.63;;;2.22;;
39740;SDS011;25426;53.478;10.190;2022-07-29T00:07:19;3.80;;;2.13;;
39740;SDS011;25426;53.478;10.190;2022-07-29T00:09:50;4.50;;;2.05;;
39740;SDS011;25426;53.478;10.190;2022-07-29T00:12:22;3.20;;;2.03;;
39740;SDS011;25426;53.478;10.190;2022-07-29T00:14:55;5.30;;;1.95;;
39740;SDS011;25426;53.478;10.190;2022-07-29T00:17:26;4.72;;;2.35;;
39740;SDS011;25426;53.478;10.190;2022-07-29T00:19:57;5.43;;;2.30;;
39740;SDS011;25426;53.478;10.190;2022-07-29T00:22:28;4.65;;;2.38;;
39740;SDS011;25426;53.478;10.190;2022-07-29T00:24:59;6.63;;;2.58;;
39740;SDS011;25426;53.478;10.190;2022-07-29T00:27:29;4.78;;;2.35;;
39740;SDS011;25426;53.478;10.190;2022-07-29T00:30:00;5.05;;;2.58;;
39740;SDS011;25426;53.478;10.190;2022-07-29T00:32:31;4.32;;;2.17;;
39740;SDS011;25426;53.478;10.190;2022-07-29T00:35:03;6.18;;;2.47;;
39740;SDS011;25426;53.478;10.190;2022-07-29T00:37:53;7.05;;;2.53;;
39740;SDS011;25426;53.478;10.190;2022-07-29T00:40:24;3.58;;;2.50;;
39740;SDS011;25426;53.478;10.190;2022-07-29T00:42:55;4.28;;;2.60;;
39740;SDS011;25426;53.478;10.190;2022-07-29T00:45:26;8.88;;;2.80;;
39740;SDS011;25426;53.478;10.190;2022-07-29T00:47:57;3.40;;;2.15;;
39740;SDS011;25426;53.478;10.190;2022-07-29T00:50:27;7.82;;;2.10;;
39740;SDS011;25426;53.478;10.190;2022-07-29T00:52:58;6.53;;;2.50;;
39740;SDS011;25426;53.478;10.190;2022-07-29T00:55:29;6.03;;;2.50;;
39740;SDS011;25426;53.478;10.190;2022-07-29T00:58:03;3.83;;;2.20;;
39740;SDS011;25426;53.478;10.190;2022-07-29T01:00:33;5.00;;;2.40;;
39740;SDS011;25426;53.478;10.190;2022-07-29T01:03:04;4.15;;;2.45;;
39740;SDS011;25426;53.478;10.190;2022-07-29T01:05:35;8.32;;;2.67;;
39740;SDS011;25426;53.478;10.190;2022-07-29T01:08:06;4.18;;;2.70;;
39740;SDS011;25426;53.478;10.190;2022-07-29T01:10:37;6.97;;;2.92;;
39740;SDS011;25426;53.478;10.190;2022-07-29T01:13:08;4.55;;;2.85;;
39740;SDS011;25426;53.478;10.190;2022-07-29T01:15:43;8.25;;;2.63;;
39740;SDS011;25426;53.478;10.190;2022-07-29T01:18:18;3.70;;;2.50;;
39740;SDS011;25426;53.478;10.190;2022-07-29T01:30:11;7.18;;;2.80;;
39740;SDS011;25426;53.478;10.190;2022-07-29T01:32:42;7.30;;;3.17;;
39740;SDS011;25426;53.478;10.190;2022-07-29T01:35:19;4.75;;;3.13;;
39740;SDS011;25426;53.478;10.190;2022-07-29T01:40:44;6.43;;;3.50;;
39740;SDS011;25426;53.478;10.190;2022-07-29T01:43:23;6.20;;;3.15;;
39740;SDS011;25426;53.478;10.190;2022-07-29T01:46:12;9.65;;;2.95;;
39740;SDS011;25426;53.478;10.190;2022-07-29T01:48:46;5.05;;;2.67;;
39740;SDS011;25426;53.478;10.190;2022-07-29T01:51:21;7.25;;;2.83;;
39740;SDS011;25426;53.478;10.190;2022-07-29T01:54:05;5.57;;;2.75;;
39740;SDS011;25426;53.478;10.190;2022-07-29T01:56:38;7.53;;;2.83;;
39740;SDS011;25426;53.478;10.190;2022-07-29T01:59:09;3.70;;;2.80;;
39740;SDS011;25426;53.478;10.190;2022-07-29T02:01:40;4.45;;;2.83;;
39740;SDS011;25426;53.478;10.190;2022-07-29T02:04:13;5.80;;;2.63;;
39740;SDS011;25426;53.478;10.190;2022-07-29T02:06:45;4.22;;;2.95;;
39740;SDS011;25426;53.478;10.190;2022-07-29T02:09:19;6.63;;;3.15;;
39740;SDS011;25426;53.478;10.190;2022-07-29T02:11:52;5.30;;;3.30;;
39740;SDS011;25426;53.478;10.190;2022-07-29T02:14:24;5.55;;;3.28;;
39740;SDS011;25426;53.478;10.190;2022-07-29T02:16:55;10.85;;;3.53;;
39740;SDS011;25426;53.478;10.190;2022-07-29T02:19:26;4.00;;;3.28;;
39740;SDS011;25426;53.478;10.190;2022-07-29T02:21:58;4.55;;;2.80;;
39740;SDS011;25426;53.478;10.190;2022-07-29T02:24:30;6.10;;;2.85;;
39740;SDS011;25426;53.478;10.190;2022-07-29T02:27:01;3.53;;;3.00;;
39740;SDS011;25426;53.478;10.190;2022-07-29T02:29:32;6.65;;;3.28;;
39740;SDS011;25426;53.478;10.190;2022-07-29T02:32:05;7.82;;;2.72;;
39740;SDS011;25426;53.478;10.190;2022-07-29T02:34:37;8.70;;;3.17;;
39740;SDS011;25426;53.478;10.190;2022-07-29T02:37:09;4.95;;;3.08;;
39740;SDS011;25426;53.478;10.190;2022-07-29T02:39:40;4.75;;;3.00;;
39740;SDS011;25426;53.478;10.190;2022-07-29T02:42:14;6.95;;;2.88;;
39740;SDS011;25426;53.478;10.190;2022-07-29T02:44:46;4.03;;;2.90;;
39740;SDS011;25426;53.478;10.190;2022-07-29T02:47:22;4.68;;;2.55;;
39740;SDS011;25426;53.478;10.190;2022-07-29T02:50:04;7.05;;;3.00;;
39740;SDS011;25426;53.478;10.190;2022-07-29T02:52:42;4.35;;;2.47;;
39740;SDS011;25426;53.478;10.190;2022-07-29T02:58:08;5.50;;;2.80;;
39740;SDS011;25426;53.478;10.190;2022-07-29T03:01:11;7.18;;;3.13;;
39740;SDS011;25426;53.478;10.190;2022-07-29T03:03:46;5.28;;;2.70;;
39740;SDS011;25426;53.478;10.190;2022-07-29T03:06:21;4.70;;;3.58;;
39740;SDS011;25426;53.478;10.190;2022-07-29T03:08:53;4.45;;;2.88;;
39740;SDS011;25426;53.478;10.190;2022-07-29T03:11:25;8.52;;;2.85;;
39740;SDS011;25426;53.478;10.190;2022-07-29T03:13:56;6.68;;;3.10;;
39740;SDS011;25426;53.478;10.190;2022-07-29T03:16:27;8.05;;;3.00;;
39740;SDS011;25426;53.478;10.190;2022-07-29T03:18:58;5.05;;;3.10;;
39740;SDS011;25426;53.478;10.190;2022-07-29T03:21:30;4.63;;;2.85;;
39740;SDS011;25426;53.478;10.190;2022-07-29T03:24:01;6.60;;;2.90;;
39740;SDS011;25426;53.478;10.190;2022-07-29T03:26:32;5.95;;;3.00;;
39740;SDS011;25426;53.478;10.190;2022-07-29T03:29:02;7.05;;;2.80;;
39740;SDS011;25426;53.478;10.190;2022-07-29T03:31:33;7.18;;;3.20;;
39740;SDS011;25426;53.478;10.190;2022-07-29T03:34:04;6.68;;;3.25;;
39740;SDS011;25426;53.478;10.190;2022-07-29T03:36:35;7.22;;;3.10;;
39740;SDS011;25426;53.478;10.190;2022-07-29T03:39:05;4.57;;;2.78;;
39740;SDS011;25426;53.478;10.190;2022-07-29T03:41:37;5.05;;;2.63;;
39740;SDS011;25426;53.478;10.190;2022-07-29T03:44:09;3.63;;;2.38;;
39740;SDS011;25426;53.478;10.190;2022-07-29T03:46:40;6.40;;;2.85;;
39740;SDS011;25426;53.478;10.190;2022-07-29T03:49:12;9.13;;;2.90;;
39740;SDS011;25426;53.478;10.190;2022-07-29T03:51:45;8.63;;;3.53;;
39740;SDS011;25426;53.478;10.190;2022-07-29T03:54:16;7.40;;;2.85;;
39740;SDS011;25426;53.478;10.190;2022-07-29T03:56:47;6.07;;;3.15;;
39740;SDS011;25426;53.478;10.190;2022-07-29T03:59:19;6.82;;;2.83;;
39740;SDS011;25426;53.478;10.190;2022-07-29T04:01:50;5.22;;;2.70;;
39740;SDS011;25426;53.478;10.190;2022-07-29T04:04:21;5.95;;;2.45;;
39740;SDS011;25426;53.478;10.190;2022-07-29T04:06:52;7.25;;;2.72;;
39740;SDS011;25426;53.478;10.190;2022-07-29T04:09:23;9.05;;;2.60;;
39740;SDS011;25426;53.478;10.190;2022-07-29T04:11:54;6.50;;;3.50;;
39740;SDS011;25426;53.478;10.190;2022-07-29T04:14:25;4.80;;;2.75;;
39740;SDS011;25426;53.478;10.190;2022-07-29T04:16:55;7.65;;;3.13;;
39740;SDS011;25426;53.478;10.190;2022-07-29T04:19:26;4.78;;;3.15;;
39740;SDS011;25426;53.478;10.190;2022-07-29T04:21:57;8.10;;;3.55;;
39740;SDS011;25426;53.478;10.190;2022-07-29T04:24:29;5.22;;;2.60;;
39740;SDS011;25426;53.478;10.190;2022-07-29T04:27:00;6.22;;;2.55;;
39740;SDS011;25426;53.478;10.190;2022-07-29T04:29:31;8.07;;;3.20;;
39740;SDS011;25426;53.478;10.190;2022-07-29T04:32:01;4.93;;;2.47;;
39740;SDS011;25426;53.478;10.190;2022-07-29T04:34:32;5.55;;;2.63;;
39740;SDS011;25426;53.478;10.190;2022-07-29T04:37:03;4.57;;;2.78;;
39740;SDS011;25426;53.478;10.190;2022-07-29T04:39:34;5.28;;;2.75;;
39740;SDS011;25426;53.478;10.190;2022-07-29T04:42:05;4.72;;;2.72;;
39740;SDS011;25426;53.478;10.190;2022-07-29T04:44:35;7.25;;;2.85;;
39740;SDS011;25426;53.478;10.190;2022-07-29T04:47:07;4.13;;;2.72;;
39740;SDS011;25426;53.478;10.190;2022-07-29T04:49:38;6.70;;;2.95;;
39740;SDS011;25426;53.478;10.190;2022-07-29T04:52:09;4.95;;;3.05;;
39740;SDS011;25426;53.478;10.190;2022-07-29T04:54:40;5.72;;;3.17;;
39740;SDS011;25426;53.478;10.190;2022-07-29T04:57:11;7.35;;;3.25;;
39740;SDS011;25426;53.478;10.190;2022-07-29T04:59:42;4.43;;;2.67;;
39740;SDS011;25426;53.478;10.190;2022-07-29T05:02:13;5.00;;;2.65;;
39740;SDS011;25426;53.478;10.190;2022-07-29T05:04:44;7.22;;;3.05;;
39740;SDS011;25426;53.478;10.190;2022-07-29T05:07:15;6.13;;;2.90;;
39740;SDS011;25426;53.478;10.190;2022-07-29T05:09:46;5.18;;;2.65;;
39740;SDS011;25426;53.478;10.190;2022-07-29T05:12:17;4.05;;;2.80;;
39740;SDS011;25426;53.478;10.190;2022-07-29T05:14:47;5.40;;;2.90;;
39740;SDS011;25426;53.478;10.190;2022-07-29T05:17:18;9.00;;;2.80;;
39740;SDS011;25426;53.478;10.190;2022-07-29T05:19:49;5.03;;;2.63;;
39740;SDS011;25426;53.478;10.190;2022-07-29T05:22:21;3.08;;;2.40;;
39740;SDS011;25426;53.478;10.190;2022-07-29T05:24:52;6.00;;;2.80;;
39740;SDS011;25426;53.478;10.190;2022-07-29T05:27:23;5.80;;;2.75;;
39740;SDS011;25426;53.478;10.190;2022-07-29T05:29:53;3.50;;;2.45;;
39740;SDS011;25426;53.478;10.190;2022-07-29T05:32:24;8.32;;;3.13;;
39740;SDS011;25426;53.478;10.190;2022-07-29T05:34:55;6.63;;;3.22;;
39740;SDS011;25426;53.478;10.190;2022-07-29T05:37:26;3.92;;;2.72;;
39740;SDS011;25426;53.478;10.190;2022-07-29T05:39:57;8.45;;;2.72;;
39740;SDS011;25426;53.478;10.190;2022-07-29T05:42:27;6.38;;;2.45;;
39740;SDS011;25426;53.478;10.190;2022-07-29T05:44:59;7.05;;;2.45;;
39740;SDS011;25426;53.478;10.190;2022-07-29T05:47:30;7.10;;;2.90;;
39740;SDS011;25426;53.478;10.190;2022-07-29T05:50:01;4.32;;;2.65;;
39740;SDS011;25426;53.478;10.190;2022-07-29T05:52:33;3.95;;;2.30;;
39740;SDS011;25426;53.478;10.190;2022-07-29T05:55:04;6.50;;;2.95;;
39740;SDS011;25426;53.478;10.190;2022-07-29T05:57:35;7.95;;;2.72;;
39740;SDS011;25426;53.478;10.190;2022-07-29T06:00:06;8.88;;;3.10;;
39740;SDS011;25426;53.478;10.190;2022-07-29T06:02:44;5.22;;;3.00;;
39740;SDS011;25426;53.478;10.190;2022-07-29T06:05:15;4.13;;;2.72;;
39740;SDS011;25426;53.478;10.190;2022-07-29T06:07:45;6.00;;;2.63;;
39740;SDS011;25426;53.478;10.190;2022-07-29T06:10:16;6.78;;;2.70;;
39740;SDS011;25426;53.478;10.190;2022-07-29T06:12:48;4.43;;;2.97;;
39740;SDS011;25426;53.478;10.190;2022-07-29T06:15:18;4.85;;;2.70;;
39740;SDS011;25426;53.478;10.190;2022-07-29T06:17:49;5.63;;;3.00;;
39740;SDS011;25426;53.478;10.190;2022-07-29T06:20:20;5.07;;;2.65;;
39740;SDS011;25426;53.478;10.190;2022-07-29T06:22:51;5.78;;;2.85;;
39740;SDS011;25426;53.478;10.190;2022-07-29T06:25:22;9.05;;;2.88;;
39740;SDS011;25426;53.478;10.190;2022-07-29T06:27:53;4.38;;;2.30;;
39740;SDS011;25426;53.478;10.190;2022-07-29T06:30:24;7.55;;;3.30;;
39740;SDS011;25426;53.478;10.190;2022-07-29T06:32:55;5.80;;;2.60;;
39740;SDS011;25426;53.478;10.190;2022-07-29T06:35:25;9.35;;;3.33;;
39740;SDS011;25426;53.478;10.190;2022-07-29T06:37:56;4.97;;;2.47;;
39740;SDS011;25426;53.478;10.190;2022-07-29T06:40:27;4.65;;;2.45;;
39740;SDS011;25426;53.478;10.190;2022-07-29T06:43:16;5.00;;;2.58;;
39740;SDS011;25426;53.478;10.190;2022-07-29T06:45:47;5.20;;;2.83;;
39740;SDS011;25426;53.478;10.190;2022-07-29T06:48:18;4.82;;;2.60;;
39740;SDS011;25426;53.478;10.190;2022-07-29T06:50:49;6.70;;;2.90;;
39740;SDS011;25426;53.478;10.190;2022-07-29T06:53:20;4.75;;;2.25;;
39740;SDS011;25426;53.478;10.190;2022-07-29T06:55:51;5.30;;;2.67;;
39740;SDS011;25426;53.478;10.190;2022-07-29T06:58:22;4.95;;;2.63;;
39740;SDS011;25426;53.478;10.190;2022-07-29T07:01:00;4.57;;;2.72;;
39740;SDS011;25426;53.478;10.190;2022-07-29T07:03:34;7.47;;;3.03;;
39740;SDS011;25426;53.478;10.190;2022-07-29T07:06:05;7.32;;;3.05;;
39740;SDS011;25426;53.478;10.190;2022-07-29T07:08:35;7.35;;;3.28;;
39740;SDS011;25426;53.478;10.190;2022-07-29T07:11:06;4.72;;;2.50;;
39740;SDS011;25426;53.478;10.190;2022-07-29T07:13:37;3.30;;;2.20;;
39740;SDS011;25426;53.478;10.190;2022-07-29T07:16:08;6.60;;;2.83;;
39740;SDS011;25426;53.478;10.190;2022-07-29T07:18:38;4.97;;;2.40;;
39740;SDS011;25426;53.478;10.190;2022-07-29T07:21:09;4.03;;;2.92;;
39740;SDS011;25426;53.478;10.190;2022-07-29T07:23:40;5.60;;;2.75;;
39740;SDS011;25426;53.478;10.190;2022-07-29T07:26:11;8.35;;;2.78;;
39740;SDS011;25426;53.478;10.190;2022-07-29T07:28:42;6.85;;;2.95;;
39740;SDS011;25426;53.478;10.190;2022-07-29T07:31:13;3.75;;;2.47;;
39740;SDS011;25426;53.478;10.190;2022-07-29T07:33:44;7.50;;;2.63;;
39740;SDS011;25426;53.478;10.190;2022-07-29T07:36:14;6.47;;;2.70;;
39740;SDS011;25426;53.478;10.190;2022-07-29T07:38:45;5.80;;;2.22;;
39740;SDS011;25426;53.478;10.190;2022-07-29T07:41:16;5.32;;;2.28;;
39740;SDS011;25426;53.478;10.190;2022-07-29T07:43:47;4.15;;;2.28;;
39740;SDS011;25426;53.478;10.190;2022-07-29T07:46:18;3.08;;;2.10;;
39740;SDS011;25426;53.478;10.190;2022-07-29T07:48:49;4.60;;;2.55;;
39740;SDS011;25426;53.478;10.190;2022-07-29T07:51:20;8.43;;;2.72;;
39740;SDS011;25426;53.478;10.190;2022-07-29T07:53:50;3.70;;;2.15;;
39740;SDS011;25426;53.478;10.190;2022-07-29T07:56:21;3.40;;;2.03;;
39740;SDS011;25426;53.478;10.190;2022-07-29T07:58:52;5.68;;;2.60;;
39740;SDS011;25426;53.478;10.190;2022-07-29T08:01:23;4.85;;;2.20;;
39740;SDS011;25426;53.478;10.190;2022-07-29T08:03:53;6.80;;;2.72;;
39740;SDS011;25426;53.478;10.190;2022-07-29T08:06:24;7.25;;;2.67;;
39740;SDS011;25426;53.478;10.190;2022-07-29T08:08:55;4.72;;;2.08;;
39740;SDS011;25426;53.478;10.190;2022-07-29T08:11:26;5.20;;;2.25;;
39740;SDS011;25426;53.478;10.190;2022-07-29T08:13:57;5.90;;;2.40;;
39740;SDS011;25426;53.478;10.190;2022-07-29T08:16:28;3.63;;;1.77;;
39740;SDS011;25426;53.478;10.190;2022-07-29T08:18:59;4.00;;;2.30;;
39740;SDS011;25426;53.478;10.190;2022-07-29T08:21:30;4.63;;;2.40;;
39740;SDS011;25426;53.478;10.190;2022-07-29T08:24:01;4.95;;;1.85;;
39740;SDS011;25426;53.478;10.190;2022-07-29T08:26:50;3.15;;;1.67;;
39740;SDS011;25426;53.478;10.190;2022-07-29T08:29:21;3.75;;;2.00;;
39740;SDS011;25426;53.478;10.190;2022-07-29T08:31:52;3.97;;;2.15;;
39740;SDS011;25426;53.478;10.190;2022-07-29T08:34:22;4.93;;;1.92;;
39740;SDS011;25426;53.478;10.190;2022-07-29T08:36:54;4.88;;;1.70;;
39740;SDS011;25426;53.478;10.190;2022-07-29T08:39:25;2.80;;;1.90;;
39740;SDS011;25426;53.478;10.190;2022-07-29T08:41:56;3.55;;;1.88;;
39740;SDS011;25426;53.478;10.190;2022-07-29T08:44:27;9.10;;;2.00;;
39740;SDS011;25426;53.478;10.190;2022-07-29T08:46:58;4.72;;;1.98;;
39740;SDS011;25426;53.478;10.190;2022-07-29T08:49:29;7.70;;;2.45;;
39740;SDS011;25426;53.478;10.190;2022-07-29T08:52:00;3.15;;;1.95;;
39740;SDS011;25426;53.478;10.190;2022-07-29T08:54:31;5.95;;;2.38;;
39740;SDS011;25426;53.478;10.190;2022-07-29T08:57:02;3.97;;;2.05;;
39740;SDS011;25426;53.478;10.190;2022-07-29T08:59:33;4.18;;;1.77;;
39740;SDS011;25426;53.478;10.190;2022-07-29T09:02:04;3.95;;;1.75;;
39740;SDS011;25426;53.478;10.190;2022-07-29T09:04:36;4.18;;;2.10;;
39740;SDS011;25426;53.478;10.190;2022-07-29T09:07:10;8.55;;;2.25;;
39740;SDS011;25426;53.478;10.190;2022-07-29T09:09:40;3.00;;;1.80;;
39740;SDS011;25426;53.478;10.190;2022-07-29T09:12:12;3.35;;;1.70;;
39740;SDS011;25426;53.478;10.190;2022-07-29T09:14:44;3.45;;;2.20;;
39740;SDS011;25426;53.478;10.190;2022-07-29T09:17:14;7.38;;;2.17;;
39740;SDS011;25426;53.478;10.190;2022-07-29T09:19:47;4.85;;;2.17;;
39740;SDS011;25426;53.478;10.190;2022-07-29T09:22:27;6.95;;;2.53;;
39740;SDS011;25426;53.478;10.190;2022-07-29T09:25:00;3.80;;;1.40;;
39740;SDS011;25426;53.478;10.190;2022-07-29T09:27:31;4.38;;;1.63;;
39740;SDS011;25426;53.478;10.190;2022-07-29T09:32:59;5.68;;;2.33;;
39740;SDS011;25426;53.478;10.190;2022-07-29T09:35:32;3.47;;;1.83;;
39740;SDS011;25426;53.478;10.190;2022-07-29T09:38:13;5.07;;;2.20;;
39740;SDS011;25426;53.478;10.190;2022-07-29T09:40:55;7.43;;;2.38;;
39740;SDS011;25426;53.478;10.190;2022-07-29T09:43:30;8.10;;;1.80;;
39740;SDS011;25426;53.478;10.190;2022-07-29T09:46:09;5.13;;;2.00;;
39740;SDS011;25426;53.478;10.190;2022-07-29T09:48:43;7.35;;;2.30;;
39740;SDS011;25426;53.478;10.190;2022-07-29T09:51:18;6.05;;;2.22;;
39740;SDS011;25426;53.478;10.190;2022-07-29T09:53:49;3.95;;;2.03;;
39740;SDS011;25426;53.478;10.190;2022-07-29T09:56:21;3.65;;;1.58;;
39740;SDS011;25426;53.478;10.190;2022-07-29T09:59:10;5.80;;;2.05;;
39740;SDS011;25426;53.478;10.190;2022-07-29T10:01:42;5.05;;;1.75;;
39740;SDS011;25426;53.478;10.190;2022-07-29T10:04:13;4.15;;;1.67;;
39740;SDS011;25426;53.478;10.190;2022-07-29T10:07:00;6.78;;;1.77;;
39740;SDS011;25426;53.478;10.190;2022-07-29T10:09:32;4.78;;;1.80;;
39740;SDS011;25426;53.478;10.190;2022-07-29T10:14:35;5.20;;;1.75;;
39740;SDS011;25426;53.478;10.190;2022-07-29T10:17:08;5.72;;;1.80;;
39740;SDS011;25426;53.478;10.190;2022-07-29T10:19:40;7.40;;;2.25;;
39740;SDS011;25426;53.478;10.190;2022-07-29T10:22:12;8.52;;;1.67;;
39740;SDS011;25426;53.478;10.190;2022-07-29T10:24:43;6.05;;;1.52;;
39740;SDS011;25426;53.478;10.190;2022-07-29T10:27:15;3.58;;;2.00;;
39740;SDS011;25426;53.478;10.190;2022-07-29T10:29:45;7.38;;;2.30;;
39740;SDS011;25426;53.478;10.190;2022-07-29T10:32:29;5.18;;;1.55;;
39740;SDS011;25426;53.478;10.190;2022-07-29T10:44:20;7.97;;;2.13;;
39740;SDS011;25426;53.478;10.190;2022-07-29T10:46:52;6.10;;;2.22;;
39740;SDS011;25426;53.478;10.190;2022-07-29T10:49:24;6.82;;;1.83;;
39740;SDS011;25426;53.478;10.190;2022-07-29T10:52:01;4.47;;;1.63;;
39740;SDS011;25426;53.478;10.190;2022-07-29T10:54:37;3.67;;;1.58;;
39740;SDS011;25426;53.478;10.190;2022-07-29T10:57:20;4.13;;;1.50;;
39740;SDS011;25426;53.478;10.190;2022-07-29T11:02:44;7.05;;;2.03;;
39740;SDS011;25426;53.478;10.190;2022-07-29T11:05:18;3.72;;;1.98;;
39740;SDS011;25426;53.478;10.190;2022-07-29T11:10:42;4.85;;;2.00;;
39740;SDS011;25426;53.478;10.190;2022-07-29T11:13:28;3.83;;;1.58;;
39740;SDS011;25426;53.478;10.190;2022-07-29T11:16:13;2.47;;;1.63;;
39740;SDS011;25426;53.478;10.190;2022-07-29T11:21:44;8.20;;;1.73;;
39740;SDS011;25426;53.478;10.190;2022-07-29T11:24:24;4.85;;;1.60;;
39740;SDS011;25426;53.478;10.190;2022-07-29T11:27:11;4.50;;;1.80;;
39740;SDS011;25426;53.478;10.190;2022-07-29T11:29:57;4.90;;;1.33;;
39740;SDS011;25426;53.478;10.190;2022-07-29T11:32:35;4.63;;;1.58;;
39740;SDS011;25426;53.478;10.190;2022-07-29T11:43:56;4.85;;;1.60;;
39740;SDS011;25426;53.478;10.190;2022-07-29T11:46:50;5.07;;;1.30;;
39740;SDS011;25426;53.478;10.190;2022-07-29T11:49:21;7.88;;;1.90;;
39740;SDS011;25426;53.478;10.190;2022-07-29T11:51:54;5.75;;;1.83;;
39740;SDS011;25426;53.478;10.190;2022-07-29T11:54:36;3.67;;;1.63;;
39740;SDS011;25426;53.478;10.190;2022-07-29T11:57:09;5.82;;;1.58;;
39740;SDS011;25426;53.478;10.190;2022-07-29T11:59:41;4.57;;;1.38;;
39740;SDS011;25426;53.478;10.190;2022-07-29T12:02:14;5.43;;;1.50;;
39740;SDS011;25426;53.478;10.190;2022-07-29T12:04:52;6.10;;;1.65;;
39740;SDS011;25426;53.478;10.190;2022-07-29T12:07:28;4.65;;;1.77;;
39740;SDS011;25426;53.478;10.190;2022-07-29T12:10:03;4.30;;;1.70;;
39740;SDS011;25426;53.478;10.190;2022-07-29T12:12:36;8.80;;;1.83;;
39740;SDS011;25426;53.478;10.190;2022-07-29T12:15:12;5.10;;;1.50;;
39740;SDS011;25426;53.478;10.190;2022-07-29T12:17:49;6.65;;;2.08;;
39740;SDS011;25426;53.478;10.190;2022-07-29T12:20:27;3.72;;;1.88;;
39740;SDS011;25426;53.478;10.190;2022-07-29T12:23:04;3.70;;;1.67;;
39740;SDS011;25426;53.478;10.190;2022-07-29T12:25:37;4.30;;;1.70;;
39740;SDS011;25426;53.478;10.190;2022-07-29T12:28:12;3.95;;;2.03;;
39740;SDS011;25426;53.478;10.190;2022-07-29T12:30:47;5.07;;;1.55;;
39740;SDS011;25426;53.478;10.190;2022-07-29T12:33:26;5.28;;;1.70;;
39740;SDS011;25426;53.478;10.190;2022-07-29T12:35:59;4.25;;;1.83;;
39740;SDS011;25426;53.478;10.190;2022-07-29T12:38:32;4.40;;;1.50;;
39740;SDS011;25426;53.478;10.190;2022-07-29T12:41:06;4.07;;;1.45;;
39740;SDS011;25426;53.478;10.190;2022-07-29T12:43:37;5.70;;;1.73;;
39740;SDS011;25426;53.478;10.190;2022-07-29T12:46:12;3.90;;;1.48;;
39740;SDS011;25426;53.478;10.190;2022-07-29T12:48:49;6.88;;;1.60;;
39740;SDS011;25426;53.478;10.190;2022-07-29T12:51:28;5.63;;;1.67;;
39740;SDS011;25426;53.478;10.190;2022-07-29T12:56:42;4.75;;;1.60;;
39740;SDS011;25426;53.478;10.190;2022-07-29T12:59:22;4.85;;;1.67;;
39740;SDS011;25426;53.478;10.190;2022-07-29T13:01:53;3.42;;;1.45;;
39740;SDS011;25426;53.478;10.190;2022-07-29T13:04:27;5.47;;;1.50;;
39740;SDS011;25426;53.478;10.190;2022-07-29T13:07:06;6.57;;;1.50;;
39740;SDS011;25426;53.478;10.190;2022-07-29T13:09:38;3.28;;;1.23;;
39740;SDS011;25426;53.478;10.190;2022-07-29T13:12:13;5.00;;;1.50;;
39740;SDS011;25426;53.478;10.190;2022-07-29T13:14:49;3.58;;;1.40;;
39740;SDS011;25426;53.478;10.190;2022-07-29T13:17:21;5.45;;;1.55;;
39740;SDS011;25426;53.478;10.190;2022-07-29T13:20:04;5.20;;;1.48;;
39740;SDS011;25426;53.478;10.190;2022-07-29T13:22:38;4.50;;;1.80;;
39740;SDS011;25426;53.478;10.190;2022-07-29T13:25:11;3.88;;;1.75;;
39740;SDS011;25426;53.478;10.190;2022-07-29T13:27:42;6.45;;;2.08;;
39740;SDS011;25426;53.478;10.190;2022-07-29T13:30:15;4.85;;;1.80;;
39740;SDS011;25426;53.478;10.190;2022-07-29T13:32:46;4.57;;;1.60;;
39740;SDS011;25426;53.478;10.190;2022-07-29T13:35:17;2.47;;;1.48;;
39740;SDS011;25426;53.478;10.190;2022-07-29T13:37:49;8.07;;;1.70;;
39740;SDS011;25426;53.478;10.190;2022-07-29T13:40:19;5.35;;;2.15;;
39740;SDS011;25426;53.478;10.190;2022-07-29T13:42:50;3.70;;;1.80;;
39740;SDS011;25426;53.478;10.190;2022-07-29T13:45:21;3.58;;;1.77;;
39740;SDS011;25426;53.478;10.190;2022-07-29T13:47:52;4.45;;;1.55;;
39740;SDS011;25426;53.478;10.190;2022-07-29T13:50:23;11.00;;;1.70;;
39740;SDS011;25426;53.478;10.190;2022-07-29T13:52:54;8.25;;;1.73;;
39740;SDS011;25426;53.478;10.190;2022-07-29T13:55:24;6.80;;;2.13;;
39740;SDS011;25426;53.478;10.190;2022-07-29T13:57:55;5.78;;;1.80;;
39740;SDS011;25426;53.478;10.190;2022-07-29T14:00:26;8.60;;;2.25;;
39740;SDS011;25426;53.478;10.190;2022-07-29T14:02:57;4.90;;;1.80;;
39740;SDS011;25426;53.478;10.190;2022-07-29T14:05:28;4.13;;;1.27;;
39740;SDS011;25426;53.478;10.190;2022-07-29T14:07:58;3.72;;;1.92;;
39740;SDS011;25426;53.478;10.190;2022-07-29T14:10:29;11.32;;;2.40;;
39740;SDS011;25426;53.478;10.190;2022-07-29T14:13:00;3.28;;;1.70;;
39740;SDS011;25426;53.478;10.190;2022-07-29T14:15:31;5.68;;;1.90;;
39740;SDS011;25426;53.478;10.190;2022-07-29T14:18:02;7.05;;;2.10;;
39740;SDS011;25426;53.478;10.190;2022-07-29T14:20:34;6.88;;;2.05;;
39740;SDS011;25426;53.478;10.190;2022-07-29T14:23:05;3.92;;;1.85;;
39740;SDS011;25426;53.478;10.190;2022-07-29T14:25:37;4.88;;;1.90;;
39740;SDS011;25426;53.478;10.190;2022-07-29T14:28:07;4.70;;;1.83;;
39740;SDS011;25426;53.478;10.190;2022-07-29T14:30:38;7.88;;;1.67;;
39740;SDS011;25426;53.478;10.190;2022-07-29T14:33:09;6.22;;;1.98;;
39740;SDS011;25426;53.478;10.190;2022-07-29T14:35:40;6.22;;;2.25;;
39740;SDS011;25426;53.478;10.190;2022-07-29T14:38:11;5.15;;;2.08;;
39740;SDS011;25426;53.478;10.190;2022-07-29T14:40:42;4.32;;;1.83;;
39740;SDS011;25426;53.478;10.190;2022-07-29T14:43:13;6.13;;;1.83;;
39740;SDS011;25426;53.478;10.190;2022-07-29T14:45:44;4.70;;;1.77;;
39740;SDS011;25426;53.478;10.190;2022-07-29T14:48:15;4.30;;;1.35;;
39740;SDS011;25426;53.478;10.190;2022-07-29T14:50:46;4.05;;;1.90;;
39740;SDS011;25426;53.478;10.190;2022-07-29T14:53:17;5.95;;;2.30;;
39740;SDS011;25426;53.478;10.190;2022-07-29T14:55:47;6.10;;;1.90;;
39740;SDS011;25426;53.478;10.190;2022-07-29T14:58:19;5.43;;;1.98;;
39740;SDS011;25426;53.478;10.190;2022-07-29T15:00:51;6.72;;;2.15;;
39740;SDS011;25426;53.478;10.190;2022-07-29T15:03:22;6.07;;;2.40;;
39740;SDS011;25426;53.478;10.190;2022-07-29T15:05:53;7.90;;;2.45;;
39740;SDS011;25426;53.478;10.190;2022-07-29T15:08:24;5.25;;;1.65;;
39740;SDS011;25426;53.478;10.190;2022-07-29T15:10:57;7.70;;;1.92;;
39740;SDS011;25426;53.478;10.190;2022-07-29T15:13:29;4.45;;;1.90;;
39740;SDS011;25426;53.478;10.190;2022-07-29T15:16:00;6.72;;;2.00;;
39740;SDS011;25426;53.478;10.190;2022-07-29T15:18:31;5.18;;;2.50;;
39740;SDS011;25426;53.478;10.190;2022-07-29T15:21:01;7.07;;;2.22;;
39740;SDS011;25426;53.478;10.190;2022-07-29T15:23:33;7.05;;;2.42;;
39740;SDS011;25426;53.478;10.190;2022-07-29T15:26:07;5.85;;;2.20;;
39740;SDS011;25426;53.478;10.190;2022-07-29T15:28:37;7.18;;;2.40;;
39740;SDS011;25426;53.478;10.190;2022-07-29T15:31:08;5.85;;;2.25;;
39740;SDS011;25426;53.478;10.190;2022-07-29T15:33:39;11.63;;;2.67;;
39740;SDS011;25426;53.478;10.190;2022-07-29T15:36:10;8.07;;;2.88;;
39740;SDS011;25426;53.478;10.190;2022-07-29T15:38:42;6.38;;;2.20;;
39740;SDS011;25426;53.478;10.190;2022-07-29T15:41:14;5.82;;;2.70;;
39740;SDS011;25426;53.478;10.190;2022-07-29T15:43:45;4.70;;;2.13;;
39740;SDS011;25426;53.478;10.190;2022-07-29T15:46:19;6.45;;;2.60;;
39740;SDS011;25426;53.478;10.190;2022-07-29T15:49:08;7.25;;;2.72;;
39740;SDS011;25426;53.478;10.190;2022-07-29T15:51:39;4.57;;;2.00;;
39740;SDS011;25426;53.478;10.190;2022-07-29T15:54:10;7.05;;;2.08;;
39740;SDS011;25426;53.478;10.190;2022-07-29T15:56:42;5.35;;;2.47;;